createdAt,value
2023-02-22T00:01:02.170Z,10.17
2023-02-22T00:03:32.599Z,10.16
2023-02-22T00:06:05.177Z,10.28
2023-02-22T00:08:34.299Z,10.28
2023-02-22T00:11:03.270Z,10.28
2023-02-22T00:13:30.462Z,10.31
2023-02-22T00:15:58.100Z,10.29
2023-02-22T00:18:28.056Z,10.27
2023-02-22T00:21:02.191Z,10.18
2023-02-22T00:23:30.605Z,10.12
2023-02-22T00:25:59.655Z,10.00
2023-02-22T00:28:26.561Z,10.07
2023-02-22T00:30:55.012Z,10.03
2023-02-22T00:33:22.364Z,10.05
2023-02-22T00:35:49.345Z,9.91
2023-02-22T00:38:18.082Z,9.89
2023-02-22T00:40:45.553Z,9.87
2023-02-22T00:43:12.518Z,9.71
2023-02-22T00:45:41.038Z,9.83
2023-02-22T00:48:08.670Z,9.74
2023-02-22T00:50:35.820Z,9.72
2023-02-22T00:53:06.303Z,9.63
2023-02-22T00:55:35.245Z,9.62
2023-02-22T00:58:02.322Z,9.52
2023-02-22T01:00:33.650Z,9.46
2023-02-22T01:03:00.367Z,9.28
2023-02-22T01:05:29.993Z,9.34
2023-02-22T01:07:57.879Z,9.31
2023-02-22T01:10:27.055Z,9.25
2023-02-22T01:12:54.575Z,9.16
2023-02-22T01:15:22.880Z,8.97
2023-02-22T01:17:51.399Z,9.04
2023-02-22T01:20:18.837Z,9.05
2023-02-22T01:22:47.558Z,8.94
2023-02-22T01:25:18.613Z,8.89
2023-02-22T01:27:45.288Z,8.98
2023-02-22T01:30:13.915Z,8.94
2023-02-22T01:32:42.157Z,8.83
2023-02-22T01:35:13.763Z,8.74
2023-02-22T01:37:40.999Z,8.73
2023-02-22T01:40:10.092Z,8.77
2023-02-22T01:42:37.283Z,8.74
2023-02-22T01:45:35.334Z,8.72
2023-02-22T01:48:30.149Z,8.60
2023-02-22T01:51:18.796Z,8.54
2023-02-22T01:53:55.970Z,8.49
2023-02-22T01:56:24.027Z,8.50
2023-02-22T01:58:59.582Z,8.46
2023-02-22T02:01:26.500Z,8.45
2023-02-22T02:03:58.323Z,8.35
2023-02-22T02:06:25.560Z,8.35
2023-02-22T02:09:05.004Z,8.32
2023-02-22T02:11:32.615Z,8.31
2023-02-22T02:14:00.082Z,8.29
2023-02-22T02:16:46.723Z,8.23
2023-02-22T02:19:23.863Z,8.15
2023-02-22T02:22:21.428Z,8.04
2023-02-22T02:25:24.500Z,8.05
2023-02-22T02:28:16.224Z,7.99
2023-02-22T02:31:19.609Z,8.01
2023-02-22T02:33:56.072Z,8.01
2023-02-22T02:36:31.146Z,8.05
2023-02-22T02:39:07.195Z,8.13
2023-02-22T02:41:42.031Z,8.11
2023-02-22T02:44:15.903Z,7.77
2023-02-22T02:46:53.329Z,8.03
2023-02-22T02:49:25.495Z,8.15
2023-02-22T02:51:54.144Z,8.16
2023-02-22T02:54:22.351Z,8.17
2023-02-22T02:56:52.267Z,8.12
2023-02-22T02:59:26.315Z,8.19
2023-02-22T03:02:16.226Z,8.28
2023-02-22T03:05:16.410Z,8.19
2023-02-22T03:08:03.488Z,8.27
2023-02-22T03:10:50.503Z,8.34
2023-02-22T03:13:26.113Z,8.34
2023-02-22T03:16:15.221Z,8.35
2023-02-22T03:18:51.918Z,8.32
2023-02-22T03:21:24.511Z,8.35
2023-02-22T03:24:14.926Z,8.39
2023-02-22T03:26:53.572Z,8.48
2023-02-22T03:29:21.953Z,8.44
2023-02-22T03:31:52.382Z,8.52
2023-02-22T03:34:26.651Z,8.54
2023-02-22T03:37:01.183Z,8.57
2023-02-22T03:39:31.399Z,8.46
2023-02-22T03:42:10.164Z,8.53
2023-02-22T03:44:38.797Z,8.58
2023-02-22T03:47:09.950Z,8.53
2023-02-22T03:49:40.972Z,8.62
2023-02-22T03:52:08.074Z,8.64
2023-02-22T03:54:35.969Z,8.64
2023-02-22T03:57:14.348Z,8.65
2023-02-22T03:59:43.191Z,8.70
2023-02-22T04:02:10.981Z,8.67
2023-02-22T04:04:37.962Z,8.60
2023-02-22T04:07:04.869Z,8.68
2023-02-22T04:09:32.854Z,8.68
2023-02-22T04:11:59.825Z,8.72
2023-02-22T04:14:29.543Z,8.70
2023-02-22T04:16:57.534Z,8.72
2023-02-22T04:19:24.232Z,8.76
2023-02-22T04:21:51.921Z,8.76
2023-02-22T04:24:22.433Z,8.75
2023-02-22T04:26:50.396Z,8.75
2023-02-22T04:29:17.658Z,8.72
2023-02-22T04:31:45.206Z,8.65
2023-02-22T04:34:12.083Z,8.69
2023-02-22T04:36:42.514Z,8.76
2023-02-22T04:39:09.779Z,8.76
2023-02-22T04:41:36.429Z,8.76
2023-02-22T04:44:03.284Z,8.69
2023-02-22T04:46:31.690Z,8.70
2023-02-22T04:49:01.551Z,8.77
2023-02-22T04:51:31.073Z,8.79
2023-02-22T04:54:01.082Z,8.79
2023-02-22T04:56:28.221Z,8.84
2023-02-22T04:58:54.908Z,8.84
2023-02-22T05:01:21.630Z,8.83
2023-02-22T05:03:48.505Z,8.79
2023-02-22T05:06:18.510Z,8.77
2023-02-22T05:08:45.156Z,8.82
2023-02-22T05:11:11.823Z,8.89
2023-02-22T05:13:38.456Z,8.63
2023-02-22T05:16:05.763Z,8.61
2023-02-22T05:18:32.482Z,8.82
2023-02-22T05:20:59.109Z,8.84
2023-02-22T05:23:25.786Z,8.91
2023-02-22T05:25:52.522Z,8.95
2023-02-22T05:28:19.221Z,8.92
2023-02-22T05:30:46.319Z,8.83
2023-02-22T05:33:13.295Z,8.87
2023-02-22T05:35:40.221Z,8.92
2023-02-22T05:38:07.638Z,8.91
2023-02-22T05:40:34.802Z,9.01
2023-02-22T05:43:02.294Z,8.93
2023-02-22T05:45:29.595Z,9.03
2023-02-22T05:47:56.258Z,9.00
2023-02-22T05:50:24.580Z,8.99
2023-02-22T05:52:52.012Z,8.79
2023-02-22T05:55:20.775Z,8.76
2023-02-22T05:57:47.444Z,8.64
2023-02-22T06:00:17.771Z,8.74
2023-02-22T06:02:44.428Z,8.83
2023-02-22T06:05:11.345Z,8.90
2023-02-22T06:07:38.170Z,9.01
2023-02-22T06:10:05.443Z,9.02
2023-02-22T06:12:32.046Z,8.98
2023-02-22T06:14:58.710Z,8.82
2023-02-22T06:17:25.340Z,8.96
2023-02-22T06:19:51.991Z,8.99
2023-02-22T06:22:19.764Z,9.05
2023-02-22T06:24:46.442Z,8.89
2023-02-22T06:27:13.278Z,9.04
2023-02-22T06:29:40.000Z,9.03
2023-02-22T06:32:06.693Z,9.09
2023-02-22T06:34:33.446Z,9.11
2023-02-22T06:37:00.770Z,9.11
2023-02-22T06:39:27.418Z,9.20
2023-02-22T06:41:56.069Z,9.18
2023-02-22T06:44:22.775Z,9.10
2023-02-22T06:46:51.306Z,9.11
2023-02-22T06:49:19.528Z,9.13
2023-02-22T06:51:46.364Z,9.15
2023-02-22T06:54:13.042Z,9.15
2023-02-22T06:56:39.671Z,9.26
2023-02-22T06:59:06.365Z,9.26
2023-02-22T07:01:33.060Z,9.40
2023-02-22T07:03:59.806Z,9.02
2023-02-22T07:06:26.416Z,9.24
2023-02-22T07:08:53.065Z,9.40
2023-02-22T07:11:19.770Z,9.37
2023-02-22T07:13:52.532Z,9.33
2023-02-22T07:16:19.239Z,9.35
2023-02-22T07:18:46.425Z,9.44
2023-02-22T07:21:13.054Z,9.14
2023-02-22T07:23:42.705Z,9.23
2023-02-22T07:26:09.335Z,9.40
2023-02-22T07:28:36.044Z,9.29
2023-02-22T07:31:02.924Z,9.41
2023-02-22T07:33:29.612Z,9.55
2023-02-22T07:35:56.235Z,9.53
2023-02-22T07:38:22.956Z,9.54
2023-02-22T07:40:49.607Z,9.61
2023-02-22T07:43:21.429Z,9.58
2023-02-22T07:45:50.401Z,9.08
2023-02-22T07:48:18.721Z,9.34
2023-02-22T07:50:45.725Z,9.32
2023-02-22T07:53:23.579Z,9.46
2023-02-22T07:55:51.276Z,9.46
2023-02-22T07:58:20.548Z,9.48
2023-02-22T08:00:49.990Z,9.54
2023-02-22T08:03:19.285Z,9.31
2023-02-22T08:05:48.703Z,9.41
2023-02-22T08:08:18.197Z,9.60
2023-02-22T08:10:46.597Z,9.72
2023-02-22T08:13:13.409Z,9.74
2023-02-22T08:15:41.503Z,9.80
2023-02-22T08:18:10.547Z,9.75
2023-02-22T08:20:38.441Z,9.85
2023-02-22T08:23:06.801Z,9.90
2023-02-22T08:25:33.965Z,9.53
2023-02-22T08:28:03.253Z,9.67
2023-02-22T08:30:31.333Z,9.70
2023-02-22T08:32:58.615Z,9.89
2023-02-22T08:35:25.535Z,9.91
2023-02-22T08:37:55.508Z,10.06
2023-02-22T08:40:25.234Z,10.05
2023-02-22T08:42:52.222Z,10.12
2023-02-22T08:45:18.900Z,10.18
2023-02-22T08:47:45.748Z,10.19
2023-02-22T08:50:42.065Z,10.22
2023-02-22T08:53:09.695Z,10.15
2023-02-22T08:55:37.983Z,10.01
2023-02-22T08:58:06.068Z,10.20
2023-02-22T09:00:34.038Z,10.06
2023-02-22T09:03:05.436Z,10.26
2023-02-22T09:05:32.391Z,10.07
2023-02-22T09:07:59.538Z,10.00
2023-02-22T09:10:30.257Z,10.16
2023-02-22T09:12:57.476Z,10.26
2023-02-22T09:15:25.153Z,10.14
2023-02-22T09:17:58.150Z,10.25
2023-02-22T09:20:25.486Z,10.39
2023-02-22T09:22:53.241Z,10.50
2023-02-22T09:25:20.818Z,10.49
2023-02-22T09:27:52.067Z,10.61
2023-02-22T09:30:24.364Z,10.70
2023-02-22T09:32:52.922Z,10.60
2023-02-22T09:35:20.374Z,10.62
2023-02-22T09:37:47.074Z,10.55
2023-02-22T09:40:25.144Z,10.66
2023-02-22T09:43:17.065Z,10.73
2023-02-22T09:46:12.245Z,10.76
2023-02-22T09:49:05.333Z,10.68
2023-02-22T09:51:37.980Z,10.78
2023-02-22T09:54:06.815Z,10.64
2023-02-22T09:56:34.329Z,10.68
2023-02-22T09:59:04.349Z,10.86
2023-02-22T10:01:35.995Z,10.97
2023-02-22T10:04:13.111Z,10.98
2023-02-22T10:06:42.480Z,10.94
2023-02-22T10:09:09.825Z,10.62
2023-02-22T10:11:42.812Z,10.84
2023-02-22T10:14:34.905Z,10.89
2023-02-22T10:17:11.641Z,10.81
2023-02-22T10:19:48.837Z,10.86
2023-02-22T10:22:21.049Z,10.80
2023-02-22T10:25:12.995Z,10.64
2023-02-22T10:27:42.784Z,10.66
2023-02-22T10:30:41.991Z,10.89
2023-02-22T10:33:14.816Z,10.65
2023-02-22T10:35:41.993Z,10.94
2023-02-22T10:38:15.068Z,10.99
2023-02-22T10:40:44.881Z,10.82
2023-02-22T10:43:11.752Z,11.06
2023-02-22T10:45:38.916Z,11.13
2023-02-22T10:48:11.752Z,11.03
2023-02-22T10:50:41.454Z,10.83
2023-02-22T10:53:09.625Z,10.81
2023-02-22T10:55:36.682Z,10.46
2023-02-22T10:58:07.045Z,10.96
2023-02-22T11:00:40.121Z,10.92
2023-02-22T11:03:17.766Z,11.06
2023-02-22T11:05:45.011Z,10.82
2023-02-22T11:08:33.275Z,10.74
2023-02-22T11:11:26.672Z,10.60
2023-02-22T11:13:57.193Z,11.01
2023-02-22T11:16:33.101Z,11.04
2023-02-22T11:19:13.157Z,10.90
2023-02-22T11:21:39.859Z,10.91
2023-02-22T11:24:09.904Z,10.63
2023-02-22T11:26:38.660Z,10.92
2023-02-22T11:29:11.352Z,11.15
2023-02-22T11:31:43.191Z,11.28
2023-02-22T11:34:44.051Z,11.39
2023-02-22T11:37:22.464Z,11.43
2023-02-22T11:40:05.608Z,11.33
2023-02-22T11:42:32.399Z,11.44
2023-02-22T11:45:21.575Z,11.40
2023-02-22T11:47:52.672Z,10.83
2023-02-22T11:50:33.776Z,11.01
2023-02-22T11:53:50.371Z,11.31
2023-02-22T11:56:35.750Z,11.56
2023-02-22T11:59:36.740Z,11.19
2023-02-22T12:02:22.313Z,11.31
2023-02-22T12:04:59.179Z,11.54
2023-02-22T12:07:37.197Z,11.46
2023-02-22T12:10:20.968Z,11.41
2023-02-22T12:13:06.378Z,11.46
2023-02-22T12:15:56.357Z,11.52
2023-02-22T12:18:32.817Z,11.26
2023-02-22T12:21:03.320Z,11.25
2023-02-22T12:23:46.506Z,11.52
2023-02-22T12:26:20.432Z,11.30
2023-02-22T12:28:51.532Z,11.43
2023-02-22T12:31:29.508Z,11.48
2023-02-22T12:34:14.009Z,11.41
2023-02-22T12:36:47.453Z,11.42
2023-02-22T12:39:25.526Z,11.52
2023-02-22T12:41:55.517Z,11.54
2023-02-22T12:44:27.222Z,11.54
2023-02-22T12:46:56.889Z,11.62
2023-02-22T12:49:43.548Z,11.41
2023-02-22T12:52:22.074Z,11.53
2023-02-22T12:54:59.571Z,11.51
2023-02-22T12:57:30.525Z,11.55
2023-02-22T13:00:23.381Z,11.27
2023-02-22T13:03:00.849Z,11.49
2023-02-22T13:05:35.186Z,11.52
2023-02-22T13:08:23.679Z,11.40
2023-02-22T13:11:09.142Z,11.41
2023-02-22T13:13:55.625Z,11.47
2023-02-22T13:16:32.233Z,11.65
2023-02-22T13:19:40.312Z,11.25
2023-02-22T13:22:21.337Z,11.64
2023-02-22T13:24:56.742Z,11.74
2023-02-22T13:27:26.902Z,11.60
2023-02-22T13:30:02.890Z,11.63
2023-02-22T13:32:51.589Z,11.76
2023-02-22T13:35:43.262Z,11.61
2023-02-22T13:38:38.481Z,11.54
2023-02-22T13:41:20.724Z,11.57
2023-02-22T13:43:55.334Z,11.70
2023-02-22T13:46:44.752Z,11.78
2023-02-22T13:49:21.211Z,11.84
2023-02-22T13:51:49.387Z,11.52
2023-02-22T13:54:40.852Z,11.60
2023-02-22T13:57:23.009Z,11.59
2023-02-22T14:00:15.228Z,11.59
2023-02-22T14:02:57.164Z,11.62
2023-02-22T14:05:42.598Z,11.41
2023-02-22T14:08:36.755Z,11.63
2023-02-22T14:11:13.896Z,11.58
2023-02-22T14:13:53.811Z,11.68
2023-02-22T14:16:23.543Z,11.68
2023-02-22T14:19:02.155Z,11.46
2023-02-22T14:21:28.866Z,11.67
2023-02-22T14:24:08.126Z,11.60
2023-02-22T14:26:36.542Z,11.37
2023-02-22T14:29:09.160Z,11.54
2023-02-22T14:31:43.507Z,11.65
2023-02-22T14:34:11.976Z,11.30
2023-02-22T14:36:56.396Z,11.33
2023-02-22T14:39:33.195Z,11.59
2023-02-22T14:42:04.570Z,11.30
2023-02-22T14:44:40.084Z,11.10
2023-02-22T14:47:08.663Z,10.95
2023-02-22T14:49:43.241Z,11.21
2023-02-22T14:52:24.314Z,11.47
2023-02-22T14:55:04.501Z,11.46
2023-02-22T14:57:42.374Z,11.06
2023-02-22T15:00:23.263Z,11.24
2023-02-22T15:02:57.343Z,11.42
2023-02-22T15:05:24.205Z,11.60
2023-02-22T15:08:00.630Z,11.50
2023-02-22T15:10:32.288Z,11.63
2023-02-22T15:13:10.714Z,11.35
2023-02-22T15:15:47.542Z,11.38
2023-02-22T15:18:22.659Z,11.43
2023-02-22T15:20:56.180Z,11.31
2023-02-22T15:23:27.162Z,11.44
2023-02-22T15:25:54.192Z,11.47
2023-02-22T15:28:29.499Z,11.51
2023-02-22T15:31:15.307Z,11.34
2023-02-22T15:33:42.236Z,11.35
2023-02-22T15:36:14.438Z,11.16
2023-02-22T15:38:51.672Z,11.08
2023-02-22T15:41:28.726Z,11.26
2023-02-22T15:44:07.906Z,10.97
2023-02-22T15:46:40.730Z,11.17
2023-02-22T15:49:10.375Z,11.22
2023-02-22T15:51:39.158Z,11.33
2023-02-22T15:54:13.221Z,11.23
2023-02-22T15:56:51.636Z,11.17
2023-02-22T15:59:18.930Z,11.25
2023-02-22T16:01:47.320Z,10.78
2023-02-22T16:04:22.939Z,10.63
2023-02-22T16:06:52.336Z,10.90
2023-02-22T16:09:30.333Z,11.05
2023-02-22T16:12:27.582Z,11.10
2023-02-22T16:14:54.844Z,11.11
2023-02-22T16:17:24.929Z,10.85
2023-02-22T16:19:52.950Z,10.58
2023-02-22T16:22:36.367Z,10.75
2023-02-22T16:25:35.574Z,10.77
2023-02-22T16:28:09.825Z,10.39
2023-02-22T16:30:40.519Z,10.02
2023-02-22T16:33:13.930Z,10.32
2023-02-22T16:35:40.803Z,10.40
2023-02-22T16:38:17.029Z,9.77
2023-02-22T16:40:55.260Z,10.03
2023-02-22T16:43:24.879Z,10.18
2023-02-22T16:45:53.292Z,9.99
2023-02-22T16:48:22.551Z,10.26
2023-02-22T16:50:51.453Z,10.33
2023-02-22T16:53:21.561Z,10.31
2023-02-22T16:55:48.606Z,10.42
2023-02-22T16:58:16.512Z,10.23
2023-02-22T17:00:43.729Z,10.27
2023-02-22T17:03:15.264Z,10.13
2023-02-22T17:05:42.105Z,10.15
2023-02-22T17:08:08.917Z,10.07
2023-02-22T17:10:35.737Z,10.19
2023-02-22T17:13:16.198Z,10.30
2023-02-22T17:15:48.435Z,10.14
2023-02-22T17:18:16.768Z,10.14
2023-02-22T17:20:45.134Z,9.99
2023-02-22T17:23:12.457Z,10.11
2023-02-22T17:25:44.483Z,10.21
2023-02-22T17:28:11.761Z,10.19
2023-02-22T17:30:38.818Z,10.15
2023-02-22T17:33:07.643Z,9.89
2023-02-22T17:35:38.971Z,9.98
2023-02-22T17:38:10.105Z,9.65
2023-02-22T17:40:39.289Z,9.34
2023-02-22T17:43:08.885Z,9.34
2023-02-22T17:45:39.074Z,9.71
2023-02-22T17:48:06.203Z,9.81
2023-02-22T17:50:39.054Z,9.86
2023-02-22T17:53:06.466Z,9.89
2023-02-22T17:55:34.469Z,9.87
2023-02-22T17:58:01.252Z,9.80
2023-02-22T18:00:34.380Z,9.46
2023-02-22T18:03:03.958Z,9.52
2023-02-22T18:05:33.150Z,9.65
2023-02-22T18:08:00.150Z,9.69
2023-02-22T18:10:27.103Z,9.62
2023-02-22T18:12:54.103Z,9.62
2023-02-22T18:15:28.301Z,9.73
2023-02-22T18:17:56.073Z,9.55
2023-02-22T18:20:38.298Z,9.65
2023-02-22T18:23:09.320Z,9.35
2023-02-22T18:25:37.422Z,9.61
2023-02-22T18:28:06.447Z,9.50
2023-02-22T18:30:35.995Z,9.63
2023-02-22T18:33:03.895Z,9.54
2023-02-22T18:35:31.692Z,9.44
2023-02-22T18:37:58.529Z,9.29
2023-02-22T18:40:25.227Z,9.06
2023-02-22T18:42:52.006Z,9.15
2023-02-22T18:45:19.424Z,9.22
2023-02-22T18:47:46.217Z,9.30
2023-02-22T18:50:17.313Z,9.38
2023-02-22T18:52:47.469Z,9.33
2023-02-22T18:55:18.989Z,9.19
2023-02-22T18:57:46.423Z,9.30
2023-02-22T19:00:17.081Z,9.19
2023-02-22T19:02:46.783Z,9.00
2023-02-22T19:05:17.443Z,9.23
2023-02-22T19:07:44.994Z,9.33
2023-02-22T19:10:11.623Z,9.32
2023-02-22T19:12:38.413Z,9.14
2023-02-22T19:15:05.418Z,9.25
2023-02-22T19:17:32.777Z,9.04
2023-02-22T19:19:59.442Z,9.11
2023-02-22T19:22:26.765Z,9.08
2023-02-22T19:24:54.336Z,9.11
2023-02-22T19:27:21.771Z,9.21
2023-02-22T19:29:49.414Z,9.15
2023-02-22T19:32:17.637Z,9.06
2023-02-22T19:34:44.696Z,9.12
2023-02-22T19:37:13.256Z,9.11
2023-02-22T19:39:43.646Z,8.95
2023-02-22T19:42:10.540Z,8.74
2023-02-22T19:44:37.908Z,8.75
2023-02-22T19:47:09.347Z,8.94
2023-02-22T19:49:37.484Z,8.85
2023-02-22T19:52:06.689Z,8.86
2023-02-22T19:54:33.474Z,8.91
2023-02-22T19:57:00.732Z,8.75
2023-02-22T19:59:27.584Z,8.76
2023-02-22T20:01:54.984Z,8.78
2023-02-22T20:04:22.994Z,8.73
2023-02-22T20:06:54.475Z,8.86
2023-02-22T20:09:30.527Z,8.89
2023-02-22T20:11:57.507Z,8.92
2023-02-22T20:14:28.606Z,8.88
2023-02-22T20:16:56.990Z,8.88
2023-02-22T20:19:26.770Z,8.46
2023-02-22T20:21:57.876Z,8.69
2023-02-22T20:24:25.243Z,8.67
2023-02-22T20:26:55.820Z,8.76
2023-02-22T20:29:31.608Z,8.85
2023-02-22T20:32:03.417Z,8.70
2023-02-22T20:34:33.970Z,8.56
2023-02-22T20:37:01.125Z,8.31
2023-02-22T20:39:28.059Z,8.43
2023-02-22T20:41:54.838Z,8.23
2023-02-22T20:44:21.679Z,8.39
2023-02-22T20:46:48.967Z,8.41
2023-02-22T20:49:18.841Z,8.43
2023-02-22T20:51:46.561Z,8.52
2023-02-22T20:54:13.663Z,8.60
2023-02-22T20:56:42.690Z,8.42
2023-02-22T20:59:14.934Z,8.45
2023-02-22T21:01:42.307Z,8.46
2023-02-22T21:04:13.722Z,8.44
2023-02-22T21:06:40.904Z,8.26
2023-02-22T21:09:12.621Z,8.42
2023-02-22T21:11:40.201Z,8.30
2023-02-22T21:14:06.978Z,8.25
2023-02-22T21:16:36.066Z,8.23
2023-02-22T21:19:04.922Z,8.32
2023-02-22T21:21:32.140Z,8.14
2023-02-22T21:24:02.285Z,8.22
2023-02-22T21:26:33.802Z,8.14
2023-02-22T21:29:04.916Z,7.88
2023-02-22T21:31:32.727Z,7.90
2023-02-22T21:34:04.267Z,8.20
2023-02-22T21:36:32.115Z,8.23
2023-02-22T21:39:01.922Z,8.10
2023-02-22T21:41:29.994Z,8.23
2023-02-22T21:43:58.166Z,8.29
2023-02-22T21:46:26.384Z,7.73
2023-02-22T21:48:53.283Z,7.93
2023-02-22T21:51:31.704Z,7.67
2023-02-22T21:54:03.598Z,7.97
2023-02-22T21:56:34.398Z,7.83
2023-02-22T21:59:03.833Z,7.95
2023-02-22T22:01:36.808Z,7.88
2023-02-22T22:04:04.573Z,7.88
2023-02-22T22:06:33.319Z,7.95
2023-02-22T22:09:00.360Z,7.63
2023-02-22T22:11:27.652Z,7.82
2023-02-22T22:13:58.964Z,7.76
2023-02-22T22:16:33.212Z,7.79
2023-02-22T22:19:00.020Z,7.79
2023-02-22T22:21:26.732Z,7.06
2023-02-22T22:23:57.460Z,7.51
2023-02-22T22:26:25.290Z,7.70
2023-02-22T22:28:54.401Z,7.60
2023-02-22T22:31:23.659Z,7.68
2023-02-22T22:33:50.905Z,7.44
2023-02-22T22:36:19.780Z,7.07
2023-02-22T22:38:47.213Z,7.22
2023-02-22T22:41:15.854Z,7.33
2023-02-22T22:43:48.503Z,7.40
2023-02-22T22:46:17.192Z,7.65
2023-02-22T22:48:47.129Z,7.50
2023-02-22T22:51:18.508Z,7.46
2023-02-22T22:53:47.047Z,7.48
2023-02-22T22:56:17.519Z,7.50
2023-02-22T22:58:51.548Z,7.49
2023-02-22T23:01:20.749Z,7.43
2023-02-22T23:03:55.110Z,7.22
2023-02-22T23:06:25.083Z,7.46
2023-02-22T23:09:00.210Z,7.22
2023-02-22T23:11:33.726Z,7.50
2023-02-22T23:14:03.255Z,7.28
2023-02-22T23:16:32.300Z,6.94
2023-02-22T23:18:59.287Z,7.18
2023-02-22T23:21:25.965Z,7.41
2023-02-22T23:23:58.860Z,7.51
2023-02-22T23:26:26.954Z,7.59
2023-02-22T23:28:56.094Z,7.33
2023-02-22T23:31:23.876Z,7.30
2023-02-22T23:33:51.237Z,7.21
2023-02-22T23:36:18.823Z,7.39
2023-02-22T23:38:46.131Z,7.53
2023-02-22T23:41:16.603Z,7.61
2023-02-22T23:43:45.298Z,7.38
2023-02-22T23:46:14.212Z,7.27
2023-02-22T23:48:46.815Z,7.54
2023-02-22T23:51:16.020Z,7.59
2023-02-22T23:53:55.765Z,7.05
2023-02-22T23:56:27.063Z,7.16
2023-02-22T23:58:57.444Z,7.32
